createdAt,value
2018-08-16T00:00:18.327Z,2.62
2018-08-16T00:02:47.615Z,2.35
2018-08-16T00:05:16.809Z,2.80
2018-08-16T00:07:46.022Z,2.17
2018-08-16T00:10:18.170Z,2.62
2018-08-16T00:12:48.699Z,2.60
2018-08-16T00:15:18.649Z,2.20
2018-08-16T00:17:47.719Z,2.90
2018-08-16T00:20:16.842Z,2.45
2018-08-16T00:22:46.029Z,3.05
2018-08-16T00:25:15.414Z,2.60
2018-08-16T00:27:44.438Z,2.45
2018-08-16T00:30:15.893Z,2.20
2018-08-16T00:32:45.081Z,2.83
2018-08-16T00:35:14.084Z,3.00
2018-08-16T00:37:43.307Z,2.50
2018-08-16T00:40:15.100Z,2.72
2018-08-16T00:42:43.954Z,2.45
2018-08-16T00:45:13.306Z,2.45
2018-08-16T00:47:42.339Z,2.95
2018-08-16T00:50:12.853Z,2.33
2018-08-16T00:52:41.730Z,2.87
2018-08-16T00:55:11.722Z,2.85
2018-08-16T00:57:40.688Z,2.42
2018-08-16T01:00:12.349Z,2.55
2018-08-16T01:02:41.395Z,2.95
2018-08-16T01:05:10.317Z,3.33
2018-08-16T01:07:39.399Z,2.22
2018-08-16T01:10:10.903Z,2.47
2018-08-16T01:12:40.220Z,2.62
2018-08-16T01:15:13.637Z,2.47
2018-08-16T01:17:42.624Z,2.65
2018-08-16T01:20:11.518Z,2.35
2018-08-16T01:22:40.472Z,2.85
2018-08-16T01:25:10.651Z,2.65
2018-08-16T01:27:39.652Z,3.12
2018-08-16T01:30:09.831Z,2.72
2018-08-16T01:32:38.714Z,2.80
2018-08-16T01:35:08.554Z,2.70
2018-08-16T01:37:37.505Z,2.60
2018-08-16T01:40:07.116Z,2.70
2018-08-16T01:42:36.394Z,2.55
2018-08-16T01:45:05.616Z,2.75
2018-08-16T01:47:34.565Z,3.20
2018-08-16T01:50:03.796Z,2.60
2018-08-16T01:52:32.840Z,2.60
2018-08-16T01:55:01.834Z,2.67
2018-08-16T01:57:30.995Z,2.95
2018-08-16T01:59:59.952Z,3.05
2018-08-16T02:02:28.936Z,2.50
2018-08-16T02:04:57.934Z,2.85
2018-08-16T02:07:26.788Z,3.10
2018-08-16T02:09:55.648Z,2.83
2018-08-16T02:12:24.672Z,3.40
2018-08-16T02:14:53.565Z,2.70
2018-08-16T02:17:22.442Z,2.62
2018-08-16T02:19:51.360Z,3.22
2018-08-16T02:22:20.451Z,2.80
2018-08-16T02:24:49.287Z,2.95
2018-08-16T02:27:18.204Z,3.02
2018-08-16T02:29:47.030Z,3.45
2018-08-16T02:32:15.983Z,2.85
2018-08-16T02:34:44.917Z,2.80
2018-08-16T02:37:13.847Z,3.60
2018-08-16T02:39:42.708Z,3.22
2018-08-16T02:42:11.631Z,2.98
2018-08-16T02:44:40.572Z,3.17
2018-08-16T02:47:09.405Z,3.17
2018-08-16T02:49:38.352Z,3.37
2018-08-16T02:52:07.289Z,3.08
2018-08-16T02:54:36.140Z,3.47
2018-08-16T02:57:05.144Z,3.35
2018-08-16T02:59:34.049Z,2.67
2018-08-16T03:02:03.028Z,3.35
2018-08-16T03:04:31.965Z,3.00
2018-08-16T03:07:00.807Z,3.30
2018-08-16T03:09:29.731Z,3.67
2018-08-16T03:11:58.837Z,3.02
2018-08-16T03:14:27.758Z,3.58
2018-08-16T03:16:56.693Z,3.10
2018-08-16T03:19:25.670Z,3.30
2018-08-16T03:21:54.509Z,3.77
2018-08-16T03:24:23.357Z,3.15
2018-08-16T03:26:52.419Z,3.65
2018-08-16T03:29:21.303Z,3.35
2018-08-16T03:31:50.124Z,3.10
2018-08-16T03:34:19.024Z,3.80
2018-08-16T03:36:47.876Z,3.83
2018-08-16T03:39:16.723Z,3.27
2018-08-16T03:41:45.724Z,3.50
2018-08-16T03:44:14.582Z,3.52
2018-08-16T03:46:43.410Z,3.40
2018-08-16T03:49:12.376Z,3.42
2018-08-16T03:51:41.196Z,3.42
2018-08-16T03:54:10.094Z,3.00
2018-08-16T03:56:39.028Z,3.05
2018-08-16T03:59:07.874Z,3.70
2018-08-16T04:01:36.795Z,3.62
2018-08-16T04:04:05.745Z,3.87
2018-08-16T04:06:34.604Z,3.67
2018-08-16T04:09:03.561Z,4.50
2018-08-16T04:11:32.604Z,4.03
2018-08-16T04:14:01.421Z,3.92
2018-08-16T04:16:30.500Z,3.98
2018-08-16T04:18:59.377Z,3.87
2018-08-16T04:21:28.319Z,3.58
2018-08-16T04:23:57.235Z,3.33
2018-08-16T04:26:26.196Z,3.75
2018-08-16T04:28:55.038Z,3.72
2018-08-16T04:31:24.112Z,3.98
2018-08-16T04:33:52.954Z,3.75
2018-08-16T04:36:21.858Z,3.58
2018-08-16T04:38:50.778Z,3.72
2018-08-16T04:41:19.625Z,4.08
2018-08-16T04:43:48.600Z,4.15
2018-08-16T04:46:17.496Z,3.98
2018-08-16T04:48:46.453Z,3.72
2018-08-16T04:51:15.281Z,4.08
2018-08-16T04:53:44.235Z,4.22
2018-08-16T04:56:13.078Z,3.62
2018-08-16T04:58:41.916Z,3.75
2018-08-16T05:01:10.838Z,4.50
2018-08-16T05:03:39.795Z,4.03
2018-08-16T05:06:08.659Z,4.12
2018-08-16T05:08:37.552Z,4.03
2018-08-16T05:11:06.482Z,4.37
2018-08-16T05:13:35.317Z,4.47
2018-08-16T05:16:04.357Z,3.65
2018-08-16T05:18:33.223Z,3.87
2018-08-16T05:21:02.058Z,3.98
2018-08-16T05:23:31.006Z,3.75
2018-08-16T05:26:00.008Z,4.75
2018-08-16T05:28:28.887Z,4.15
2018-08-16T05:30:57.880Z,4.70
2018-08-16T05:33:26.809Z,5.17
2018-08-16T05:35:55.702Z,4.15
2018-08-16T05:38:24.639Z,4.53
2018-08-16T05:40:53.512Z,4.40
2018-08-16T05:43:22.426Z,4.50
2018-08-16T05:45:51.291Z,4.72
2018-08-16T05:48:20.692Z,4.90
2018-08-16T05:50:49.658Z,4.55
2018-08-16T05:53:18.591Z,4.55
2018-08-16T05:55:47.396Z,4.62
2018-08-16T05:58:16.391Z,4.87
2018-08-16T06:00:45.257Z,4.05
2018-08-16T06:03:14.110Z,4.62
2018-08-16T06:05:43.129Z,5.00
2018-08-16T06:08:11.958Z,4.28
2018-08-16T06:10:40.824Z,4.70
2018-08-16T06:13:09.892Z,4.65
2018-08-16T06:15:38.750Z,4.75
2018-08-16T06:18:07.696Z,4.42
2018-08-16T06:20:36.694Z,5.30
2018-08-16T06:23:05.720Z,5.08
2018-08-16T06:25:34.584Z,4.65
2018-08-16T06:28:03.489Z,4.17
2018-08-16T06:30:32.384Z,4.72
2018-08-16T06:33:01.234Z,5.57
2018-08-16T06:35:30.145Z,4.80
2018-08-16T06:37:58.996Z,4.47
2018-08-16T06:40:27.873Z,4.47
2018-08-16T06:42:56.779Z,4.72
2018-08-16T06:45:25.660Z,4.50
2018-08-16T06:47:55.114Z,4.30
2018-08-16T06:50:24.136Z,4.85
2018-08-16T06:52:53.012Z,4.53
2018-08-16T06:55:21.869Z,3.67
2018-08-16T06:57:50.842Z,4.70
2018-08-16T07:00:19.821Z,4.22
2018-08-16T07:02:48.691Z,4.08
2018-08-16T07:05:17.692Z,4.15
2018-08-16T07:07:46.554Z,3.55
2018-08-16T07:10:15.569Z,4.28
2018-08-16T07:12:44.533Z,4.67
2018-08-16T07:15:14.912Z,4.28
2018-08-16T07:17:44.447Z,4.12
2018-08-16T07:20:13.391Z,3.85
2018-08-16T07:22:42.309Z,4.00
2018-08-16T07:25:11.290Z,3.55
2018-08-16T07:27:40.298Z,3.22
2018-08-16T07:30:10.044Z,3.37
2018-08-16T07:32:39.308Z,3.42
2018-08-16T07:35:08.745Z,3.67
2018-08-16T07:37:37.619Z,4.20
2018-08-16T07:40:07.403Z,3.47
2018-08-16T07:42:36.254Z,3.65
2018-08-16T07:45:07.028Z,3.20
2018-08-16T07:47:36.054Z,3.60
2018-08-16T07:50:06.554Z,3.65
2018-08-16T07:52:35.505Z,3.55
2018-08-16T07:55:04.708Z,3.00
2018-08-16T07:57:33.716Z,4.08
2018-08-16T08:00:02.793Z,3.37
2018-08-16T08:02:31.731Z,3.50
2018-08-16T08:05:00.565Z,3.20
2018-08-16T08:07:29.623Z,3.77
2018-08-16T08:09:58.573Z,3.30
2018-08-16T08:12:27.552Z,3.40
2018-08-16T08:14:56.499Z,3.08
2018-08-16T08:17:25.389Z,2.72
2018-08-16T08:19:54.449Z,2.95
2018-08-16T08:22:23.333Z,2.50
2018-08-16T08:24:53.042Z,2.92
2018-08-16T08:27:21.936Z,2.37
2018-08-16T08:29:50.828Z,2.15
2018-08-16T08:32:19.818Z,2.33
2018-08-16T08:34:48.862Z,2.47
2018-08-16T08:37:28.995Z,2.00
2018-08-16T08:39:57.811Z,2.42
2018-08-16T08:42:26.694Z,1.67
2018-08-16T08:44:55.596Z,2.10
2018-08-16T08:47:29.058Z,2.08
2018-08-16T08:49:57.968Z,1.92
2018-08-16T08:52:26.908Z,1.90
2018-08-16T08:55:07.207Z,2.00
2018-08-16T08:57:47.393Z,2.30
2018-08-16T09:00:16.534Z,2.00
2018-08-16T09:02:45.413Z,2.08
2018-08-16T09:05:14.345Z,1.67
2018-08-16T09:07:43.530Z,2.33
2018-08-16T09:11:21.697Z,2.05
2018-08-16T09:14:05.283Z,2.08
2018-08-16T09:16:38.348Z,2.40
2018-08-16T09:19:08.288Z,2.37
2018-08-16T09:21:37.344Z,1.95
2018-08-16T09:24:06.388Z,2.55
2018-08-16T09:26:40.690Z,2.37
2018-08-16T09:29:20.756Z,2.87
2018-08-16T09:33:05.021Z,2.75
2018-08-16T09:35:34.418Z,3.08
2018-08-16T09:38:03.430Z,2.75
2018-08-16T09:40:32.339Z,2.70
2018-08-16T09:43:01.216Z,2.72
2018-08-16T09:45:41.844Z,10.60
2018-08-16T09:48:22.533Z,3.47
2018-08-16T09:50:51.444Z,3.58
2018-08-16T09:53:20.340Z,3.60
2018-08-16T09:55:49.216Z,3.37
2018-08-16T09:58:18.085Z,3.40
2018-08-16T10:00:52.390Z,3.80
2018-08-16T10:03:21.317Z,3.12
2018-08-16T10:05:50.240Z,4.00
2018-08-16T10:08:19.184Z,3.60
2018-08-16T10:10:48.096Z,3.98
2018-08-16T10:13:16.930Z,3.62
2018-08-16T10:15:45.862Z,3.70
2018-08-16T10:18:14.766Z,3.90
2018-08-16T10:20:43.679Z,3.60
2018-08-16T10:23:13.192Z,4.05
2018-08-16T10:25:42.184Z,3.17
2018-08-16T10:28:11.029Z,3.08
2018-08-16T10:30:39.896Z,3.42
2018-08-16T10:33:09.120Z,3.95
2018-08-16T10:35:38.040Z,3.83
2018-08-16T10:38:06.908Z,3.50
2018-08-16T10:40:35.827Z,3.20
2018-08-16T10:43:04.761Z,3.27
2018-08-16T10:45:33.598Z,3.20
2018-08-16T10:48:02.517Z,3.45
2018-08-16T10:50:31.444Z,3.42
2018-08-16T10:53:00.321Z,3.50
2018-08-16T10:55:29.249Z,4.15
2018-08-16T10:57:58.537Z,2.80
2018-08-16T11:00:27.662Z,3.20
2018-08-16T11:02:56.546Z,3.70
2018-08-16T11:05:25.397Z,3.77
2018-08-16T11:07:54.313Z,3.70
2018-08-16T11:10:23.205Z,3.47
2018-08-16T11:12:52.156Z,3.37
2018-08-16T11:15:21.070Z,3.52
2018-08-16T11:17:50.205Z,3.70
2018-08-16T11:20:19.171Z,3.72
2018-08-16T11:22:48.092Z,3.75
2018-08-16T11:25:16.953Z,2.55
2018-08-16T11:27:46.059Z,3.22
2018-08-16T11:30:15.124Z,3.40
2018-08-16T11:32:44.360Z,3.37
2018-08-16T11:35:13.461Z,3.33
2018-08-16T11:37:42.414Z,3.10
2018-08-16T11:40:11.514Z,3.83
2018-08-16T11:42:40.451Z,3.30
2018-08-16T11:45:09.769Z,3.40
2018-08-16T11:47:38.709Z,3.42
2018-08-16T11:50:07.544Z,3.00
2018-08-16T11:52:36.437Z,3.50
2018-08-16T11:55:05.348Z,3.02
2018-08-16T11:57:34.454Z,3.55
2018-08-16T12:00:03.393Z,2.62
2018-08-16T12:02:32.941Z,3.30
2018-08-16T12:05:02.483Z,3.92
2018-08-16T12:07:31.748Z,3.75
2018-08-16T12:10:00.902Z,4.00
2018-08-16T12:12:29.773Z,3.12
2018-08-16T12:14:58.672Z,3.25
2018-08-16T12:17:27.528Z,3.50
2018-08-16T12:19:56.399Z,3.67
2018-08-16T12:22:25.298Z,3.05
2018-08-16T12:24:54.240Z,3.37
2018-08-16T12:27:23.229Z,3.00
2018-08-16T12:29:52.280Z,3.20
2018-08-16T12:32:21.134Z,3.27
2018-08-16T12:34:50.068Z,3.35
2018-08-16T12:37:18.961Z,3.10
2018-08-16T12:39:47.828Z,3.35
2018-08-16T12:42:16.870Z,2.83
2018-08-16T12:44:45.783Z,3.42
2018-08-16T12:47:14.688Z,3.70
2018-08-16T12:49:43.487Z,3.58
2018-08-16T12:52:12.396Z,3.15
2018-08-16T12:54:41.256Z,3.20
2018-08-16T12:57:10.225Z,3.40
2018-08-16T12:59:39.310Z,3.20
2018-08-16T13:02:08.496Z,3.05
2018-08-16T13:04:37.470Z,3.25
2018-08-16T13:07:06.535Z,3.10
2018-08-16T13:09:35.502Z,3.12
2018-08-16T13:12:04.640Z,3.30
2018-08-16T13:14:33.570Z,3.20
2018-08-16T13:17:02.575Z,2.90
2018-08-16T13:19:31.461Z,2.90
2018-08-16T13:22:00.472Z,2.92
2018-08-16T13:24:29.468Z,3.33
2018-08-16T13:26:59.057Z,3.10
2018-08-16T13:29:28.941Z,3.10
2018-08-16T13:31:57.942Z,2.80
2018-08-16T13:34:26.933Z,3.37
2018-08-16T13:36:55.909Z,2.85
2018-08-16T13:39:24.830Z,2.72
2018-08-16T13:41:53.829Z,3.27
2018-08-16T13:44:22.701Z,2.85
2018-08-16T13:46:51.634Z,2.92
2018-08-16T13:49:20.586Z,3.20
2018-08-16T13:51:49.582Z,3.42
2018-08-16T13:54:18.472Z,3.17
2018-08-16T13:56:47.703Z,3.05
2018-08-16T13:59:16.695Z,2.92
2018-08-16T14:01:45.600Z,3.42
2018-08-16T14:04:16.344Z,2.95
2018-08-16T14:06:45.326Z,2.70
2018-08-16T14:09:14.219Z,2.60
2018-08-16T14:11:43.224Z,3.08
2018-08-16T14:14:12.257Z,2.95
2018-08-16T14:16:41.293Z,3.35
2018-08-16T14:19:10.201Z,2.92
2018-08-16T14:21:39.052Z,2.80
2018-08-16T14:24:08.020Z,2.95
2018-08-16T14:26:37.187Z,3.47
2018-08-16T14:29:06.097Z,2.98
2018-08-16T14:31:34.941Z,3.33
2018-08-16T14:34:04.200Z,3.02
2018-08-16T14:36:33.142Z,3.02
2018-08-16T14:39:02.049Z,2.70
2018-08-16T14:41:30.942Z,2.60
2018-08-16T14:43:59.883Z,2.52
2018-08-16T14:46:28.796Z,2.92
2018-08-16T14:48:57.781Z,2.42
2018-08-16T14:51:26.736Z,2.35
2018-08-16T14:53:55.581Z,2.75
2018-08-16T14:56:25.246Z,2.72
2018-08-16T14:58:54.186Z,2.52
2018-08-16T15:01:23.029Z,2.75
2018-08-16T15:12:59.792Z,2.60
2018-08-16T15:15:44.841Z,2.70
2018-08-16T15:18:14.371Z,2.37
2018-08-16T15:20:44.487Z,2.50
2018-08-16T15:23:13.384Z,2.42
2018-08-16T15:25:42.415Z,2.22
2018-08-16T15:28:39.371Z,2.67
2018-08-16T15:31:08.463Z,2.22
2018-08-16T15:33:37.394Z,2.50
2018-08-16T15:36:06.386Z,2.50
2018-08-16T15:38:35.337Z,2.35
2018-08-16T15:42:17.766Z,2.27
2018-08-16T15:44:46.808Z,1.90
2018-08-16T15:47:15.750Z,2.15
2018-08-16T15:49:44.648Z,2.40
2018-08-16T15:52:13.557Z,2.40
2018-08-16T15:54:42.457Z,1.95
2018-08-16T15:57:11.505Z,2.10
2018-08-16T15:59:40.557Z,1.87
2018-08-16T16:02:09.517Z,2.10
2018-08-16T16:04:38.409Z,2.30
2018-08-16T16:07:07.464Z,2.35
2018-08-16T16:09:36.360Z,2.15
2018-08-16T16:12:05.240Z,2.20
2018-08-16T16:14:34.193Z,2.47
2018-08-16T16:17:03.138Z,2.60
2018-08-16T16:19:32.068Z,2.08
2018-08-16T16:22:01.276Z,2.17
2018-08-16T16:24:30.378Z,2.15
2018-08-16T16:26:59.350Z,2.08
2018-08-16T16:29:28.295Z,1.82
2018-08-16T16:31:57.206Z,2.10
2018-08-16T16:34:26.369Z,2.02
2018-08-16T16:36:55.314Z,2.30
2018-08-16T16:39:24.213Z,2.30
2018-08-16T16:41:53.131Z,2.00
2018-08-16T16:44:22.040Z,1.90
2018-08-16T16:46:51.021Z,2.40
2018-08-16T16:49:22.844Z,2.17
2018-08-16T16:51:52.601Z,1.90
2018-08-16T16:54:21.602Z,2.05
2018-08-16T16:56:51.205Z,2.25
2018-08-16T16:59:20.150Z,2.00
2018-08-16T17:01:48.999Z,2.27
2018-08-16T17:04:17.897Z,2.42
2018-08-16T17:06:46.886Z,2.10
2018-08-16T17:09:15.772Z,2.12
2018-08-16T17:11:44.722Z,2.12
2018-08-16T17:17:38.505Z,1.87
2018-08-16T17:20:08.129Z,2.10
2018-08-16T17:22:37.065Z,2.15
2018-08-16T17:25:06.426Z,2.30
2018-08-16T17:27:35.482Z,1.95
2018-08-16T17:30:05.196Z,1.92
2018-08-16T17:32:34.124Z,2.30
2018-08-16T17:35:03.260Z,1.98
2018-08-16T17:37:32.220Z,2.20
2018-08-16T17:40:01.197Z,2.00
2018-08-16T17:42:30.250Z,2.05
2018-08-16T17:44:59.170Z,2.35
2018-08-16T17:47:28.192Z,2.02
2018-08-16T17:49:57.186Z,1.87
2018-08-16T17:52:26.126Z,2.25
2018-08-16T17:54:55.074Z,2.22
2018-08-16T17:57:24.935Z,1.95
2018-08-16T18:02:50.622Z,2.25
2018-08-16T18:05:19.452Z,2.08
2018-08-16T18:07:48.345Z,2.60
2018-08-16T18:10:17.344Z,2.20
2018-08-16T18:12:46.303Z,2.10
2018-08-16T18:15:15.831Z,2.30
2018-08-16T18:17:44.875Z,2.08
2018-08-16T18:20:16.455Z,2.55
2018-08-16T18:22:45.436Z,2.85
2018-08-16T18:25:14.437Z,2.20
2018-08-16T18:27:43.336Z,2.20
2018-08-16T18:30:12.913Z,2.25
2018-08-16T18:32:42.510Z,2.30
2018-08-16T18:35:11.606Z,2.25
2018-08-16T18:37:41.104Z,2.22
2018-08-16T18:40:10.163Z,2.35
2018-08-16T18:42:39.116Z,2.65
2018-08-16T18:45:10.350Z,2.00
2018-08-16T18:47:41.104Z,2.37
2018-08-16T18:50:10.826Z,2.65
2018-08-16T18:52:39.754Z,2.47
2018-08-16T18:55:08.732Z,2.58
2018-08-16T18:57:38.675Z,2.27
2018-08-16T19:00:08.473Z,2.60
2018-08-16T19:02:37.399Z,2.67
2018-08-16T19:05:06.434Z,2.35
2018-08-16T19:07:36.409Z,2.60
2018-08-16T19:10:15.949Z,2.35
2018-08-16T19:12:44.765Z,2.70
2018-08-16T19:18:11.487Z,2.70
2018-08-16T19:20:41.437Z,2.30
2018-08-16T19:23:10.318Z,2.98
2018-08-16T19:25:39.250Z,2.77
2018-08-16T19:28:08.320Z,2.58
2018-08-16T19:30:37.352Z,2.60
2018-08-16T19:33:06.608Z,2.40
2018-08-16T19:35:35.722Z,2.55
2018-08-16T19:38:04.767Z,2.40
2018-08-16T19:40:33.630Z,2.67
2018-08-16T19:43:02.510Z,2.22
2018-08-16T19:45:31.430Z,2.83
2018-08-16T19:48:00.400Z,3.20
2018-08-16T19:50:29.162Z,2.45
2018-08-16T19:52:58.140Z,2.47
2018-08-16T19:55:26.992Z,2.87
2018-08-16T19:57:56.006Z,2.72
2018-08-16T20:00:24.988Z,2.52
2018-08-16T20:02:54.004Z,2.77
2018-08-16T20:05:22.865Z,2.87
2018-08-16T20:07:52.040Z,2.98
2018-08-16T20:10:21.071Z,2.92
2018-08-16T20:15:54.558Z,2.77
2018-08-16T20:24:00.076Z,3.83
2018-08-16T20:26:30.369Z,3.72
2018-08-16T20:28:59.221Z,3.90
2018-08-16T20:32:23.909Z,3.80
2018-08-16T20:34:52.836Z,3.77
2018-08-16T20:37:21.771Z,4.15
2018-08-16T20:39:50.611Z,4.28
2018-08-16T20:42:19.555Z,4.58
2018-08-16T20:44:48.573Z,4.50
2018-08-16T20:47:17.420Z,5.20
2018-08-16T20:49:46.349Z,5.20
2018-08-16T20:52:15.311Z,4.62
2018-08-16T20:54:44.201Z,4.67
2018-08-16T20:57:13.199Z,4.40
2018-08-16T20:59:42.185Z,6.10
2018-08-16T21:02:12.283Z,4.70
2018-08-16T21:04:41.379Z,5.62
2018-08-16T21:07:10.476Z,5.65
2018-08-16T21:09:40.080Z,5.47
2018-08-16T21:12:09.085Z,4.42
2018-08-16T21:14:38.159Z,5.30
2018-08-16T21:17:07.697Z,4.58
2018-08-16T21:19:37.060Z,4.67
2018-08-16T21:22:06.389Z,5.37
2018-08-16T21:24:36.623Z,4.78
2018-08-16T21:27:06.686Z,5.00
2018-08-16T21:29:35.876Z,4.37
2018-08-16T21:32:04.898Z,4.83
2018-08-16T21:34:34.073Z,4.53
2018-08-16T21:37:03.216Z,4.90
2018-08-16T21:39:32.179Z,5.30
2018-08-16T21:42:01.112Z,4.55
2018-08-16T21:44:30.101Z,4.80
2018-08-16T21:46:59.055Z,4.78
2018-08-16T21:49:28.157Z,4.97
2018-08-16T21:51:57.065Z,5.10
2018-08-16T21:54:25.956Z,6.00
2018-08-16T21:56:54.901Z,5.70
2018-08-16T21:59:23.801Z,6.00
2018-08-16T22:01:52.870Z,5.65
2018-08-16T22:04:21.895Z,6.03
2018-08-16T22:06:57.816Z,5.70
2018-08-16T22:09:26.996Z,6.58
2018-08-16T22:11:55.966Z,6.15
2018-08-16T22:14:24.868Z,6.25
2018-08-16T22:16:53.935Z,5.28
2018-08-16T22:19:22.883Z,6.45
2018-08-16T22:21:51.916Z,5.72
2018-08-16T22:24:26.534Z,6.33
2018-08-16T22:26:55.557Z,6.65
2018-08-16T22:29:31.885Z,6.83
2018-08-16T22:32:02.192Z,6.25
2018-08-16T22:34:33.005Z,7.33
2018-08-16T22:37:04.467Z,6.10
2018-08-16T22:39:35.142Z,6.58
2018-08-16T22:42:07.416Z,6.28
2018-08-16T22:44:38.139Z,6.85
2018-08-16T22:47:11.283Z,6.35
2018-08-16T22:49:40.671Z,6.83
2018-08-16T22:52:09.569Z,6.30
2018-08-16T22:54:38.560Z,7.25
2018-08-16T22:57:07.595Z,6.83
2018-08-16T22:59:36.708Z,6.83
2018-08-16T23:02:05.732Z,6.17
2018-08-16T23:04:34.706Z,6.10
2018-08-16T23:07:03.600Z,6.40
2018-08-16T23:09:32.479Z,6.08
2018-08-16T23:12:01.393Z,6.58
2018-08-16T23:14:30.433Z,6.33
2018-08-16T23:16:59.445Z,6.53
2018-08-16T23:19:28.370Z,6.40
2018-08-16T23:21:57.296Z,5.78
2018-08-16T23:24:26.208Z,5.78
2018-08-16T23:26:55.121Z,5.55
2018-08-16T23:29:24.028Z,5.15
2018-08-16T23:31:52.966Z,5.20
2018-08-16T23:34:21.899Z,5.65
2018-08-16T23:36:50.872Z,4.53
2018-08-16T23:39:37.527Z,4.75
2018-08-16T23:42:06.493Z,4.90
2018-08-16T23:44:35.522Z,4.45
2018-08-16T23:47:04.455Z,4.53
2018-08-16T23:49:33.328Z,5.00
2018-08-16T23:52:02.423Z,4.85
2018-08-16T23:54:31.519Z,4.37
2018-08-16T23:57:00.376Z,4.62
2018-08-16T23:59:29.256Z,4.47
